createdAt,value
2023-12-28T00:00:21.809Z,3.65
2023-12-28T00:03:24.987Z,3.70
2023-12-28T00:06:28.367Z,2.37
2023-12-28T00:09:31.827Z,2.92
2023-12-28T00:12:34.763Z,3.77
2023-12-28T00:15:37.926Z,3.65
2023-12-28T00:18:41.273Z,3.33
2023-12-28T00:21:45.554Z,4.10
2023-12-28T00:24:48.491Z,3.05
2023-12-28T00:27:51.719Z,4.30
2023-12-28T00:30:54.834Z,3.70
2023-12-28T00:33:58.027Z,3.90
2023-12-28T00:37:01.001Z,2.75
2023-12-28T00:40:04.675Z,3.75
2023-12-28T00:43:08.503Z,4.50
2023-12-28T00:46:11.779Z,4.35
2023-12-28T00:49:14.589Z,3.87
2023-12-28T00:52:17.968Z,3.90
2023-12-28T00:55:20.876Z,3.85
2023-12-28T00:58:24.161Z,4.30
2023-12-28T01:01:26.994Z,4.20
2023-12-28T01:04:30.643Z,3.95
2023-12-28T01:07:33.703Z,4.32
2023-12-28T01:10:36.971Z,3.62
2023-12-28T01:13:42.446Z,4.70
2023-12-28T01:16:46.378Z,4.60
2023-12-28T01:19:49.549Z,4.03
2023-12-28T01:22:52.998Z,4.50
2023-12-28T01:25:57.895Z,4.22
2023-12-28T01:29:03.290Z,3.37
2023-12-28T01:32:07.333Z,4.40
2023-12-28T01:35:10.837Z,3.60
2023-12-28T01:38:13.682Z,4.70
2023-12-28T01:41:17.213Z,3.35
2023-12-28T01:44:20.078Z,3.63
2023-12-28T01:47:23.212Z,3.03
2023-12-28T01:50:27.436Z,4.15
2023-12-28T01:53:31.102Z,3.47
2023-12-28T01:56:34.224Z,3.78
2023-12-28T01:59:38.653Z,4.27
2023-12-28T02:02:43.526Z,2.17
2023-12-28T02:05:47.889Z,4.62
2023-12-28T02:08:50.928Z,4.68
2023-12-28T02:11:55.855Z,3.67
2023-12-28T02:14:58.809Z,4.97
2023-12-28T02:18:21.245Z,4.97
2023-12-28T02:21:26.543Z,4.35
2023-12-28T02:24:29.427Z,3.35
2023-12-28T02:27:33.649Z,5.45
2023-12-28T02:30:36.856Z,3.47
2023-12-28T02:33:51.255Z,4.07
2023-12-28T02:36:57.951Z,3.95
2023-12-28T02:40:02.918Z,3.08
2023-12-28T02:43:10.129Z,3.10
2023-12-28T02:46:13.322Z,3.60
2023-12-28T02:49:17.215Z,3.08
2023-12-28T02:52:20.603Z,4.82
2023-12-28T02:55:23.683Z,5.47
2023-12-28T02:58:27.152Z,4.62
2023-12-28T03:01:30.280Z,4.47
2023-12-28T03:04:33.461Z,5.97
2023-12-28T03:07:38.060Z,5.90
2023-12-28T03:10:41.242Z,4.15
2023-12-28T03:13:43.992Z,3.45
2023-12-28T03:16:47.281Z,3.67
2023-12-28T03:19:50.140Z,4.68
2023-12-28T03:22:54.028Z,4.47
2023-12-28T03:25:57.017Z,3.92
2023-12-28T03:28:59.998Z,4.53
2023-12-28T03:32:02.944Z,3.27
2023-12-28T03:35:08.349Z,5.50
2023-12-28T03:38:11.347Z,4.97
2023-12-28T03:41:20.924Z,3.85
2023-12-28T03:44:23.889Z,3.37
2023-12-28T03:47:27.132Z,5.17
2023-12-28T03:50:29.863Z,4.78
2023-12-28T03:53:34.164Z,4.25
2023-12-28T03:56:37.051Z,3.90
2023-12-28T03:59:41.329Z,5.22
2023-12-28T04:02:45.458Z,4.93
2023-12-28T04:05:48.760Z,6.10
2023-12-28T04:08:51.576Z,5.60
2023-12-28T04:11:54.770Z,5.00
2023-12-28T04:14:58.325Z,6.47
2023-12-28T04:18:01.724Z,5.43
2023-12-28T04:21:05.195Z,4.75
2023-12-28T04:24:08.488Z,5.43
2023-12-28T04:27:11.717Z,4.93
2023-12-28T04:30:15.243Z,3.78
2023-12-28T04:33:20.520Z,4.40
2023-12-28T04:36:23.991Z,5.85
2023-12-28T04:39:27.381Z,5.62
2023-12-28T04:42:30.554Z,6.00
2023-12-28T04:45:33.425Z,4.95
2023-12-28T04:48:36.683Z,6.83
2023-12-28T04:51:44.883Z,6.28
2023-12-28T04:54:48.361Z,6.80
2023-12-28T04:57:51.290Z,7.85
2023-12-28T05:00:55.052Z,6.20
2023-12-28T05:03:57.892Z,6.73
2023-12-28T05:07:01.234Z,7.95
2023-12-28T05:10:04.236Z,6.05
2023-12-28T05:13:07.861Z,8.43
2023-12-28T05:16:10.910Z,7.65
2023-12-28T05:19:14.034Z,7.53
2023-12-28T05:22:16.868Z,8.43
2023-12-28T05:25:20.695Z,8.00
2023-12-28T05:28:23.419Z,8.25
2023-12-28T05:31:26.918Z,8.10
2023-12-28T05:34:29.832Z,8.15
2023-12-28T05:37:33.052Z,8.73
2023-12-28T05:40:35.906Z,8.55
2023-12-28T05:43:39.591Z,9.45
2023-12-28T05:46:42.541Z,7.80
2023-12-28T05:49:45.967Z,9.27
2023-12-28T05:52:48.951Z,8.70
2023-12-28T05:55:52.029Z,7.70
2023-12-28T05:58:54.911Z,8.77
2023-12-28T06:01:58.513Z,8.70
2023-12-28T06:05:01.872Z,6.90
2023-12-28T06:08:05.328Z,7.62
2023-12-28T06:11:09.155Z,7.78
2023-12-28T06:14:13.659Z,7.37
2023-12-28T06:17:16.959Z,9.23
2023-12-28T06:20:20.776Z,7.75
2023-12-28T06:23:24.107Z,7.00
2023-12-28T06:26:26.850Z,6.10
2023-12-28T06:29:29.906Z,5.30
2023-12-28T06:32:32.931Z,7.57
2023-12-28T06:35:36.084Z,6.43
2023-12-28T06:38:39.423Z,8.95
2023-12-28T06:41:42.592Z,5.90
2023-12-28T06:44:45.800Z,4.20
2023-12-28T06:47:48.939Z,5.57
2023-12-28T06:50:51.667Z,8.40
2023-12-28T06:53:54.979Z,8.73
2023-12-28T06:56:57.921Z,9.05
2023-12-28T07:00:03.358Z,10.07
2023-12-28T07:03:06.307Z,9.07
2023-12-28T07:06:10.432Z,9.65
2023-12-28T07:09:13.662Z,10.02
2023-12-28T07:12:17.004Z,10.70
2023-12-28T07:15:19.873Z,19.27
2023-12-28T07:18:24.565Z,14.27
2023-12-28T07:21:27.693Z,14.23
2023-12-28T07:24:31.049Z,14.48
2023-12-28T07:27:38.307Z,12.10
2023-12-28T07:30:42.816Z,13.00
2023-12-28T07:33:45.963Z,12.95
2023-12-28T07:36:49.277Z,11.73
2023-12-28T07:39:52.597Z,11.80
2023-12-28T07:42:55.968Z,11.60
2023-12-28T07:45:59.241Z,11.53
2023-12-28T07:49:02.615Z,10.68
2023-12-28T07:52:05.957Z,10.57
2023-12-28T07:55:10.231Z,11.77
2023-12-28T07:58:13.860Z,10.48
2023-12-28T08:01:17.268Z,9.90
2023-12-28T08:04:20.521Z,10.53
2023-12-28T08:07:23.443Z,8.82
2023-12-28T08:10:26.744Z,9.60
2023-12-28T08:13:29.567Z,10.07
2023-12-28T08:16:33.086Z,9.03
2023-12-28T08:19:36.637Z,9.37
2023-12-28T08:22:39.936Z,9.95
2023-12-28T08:25:42.955Z,9.55
2023-12-28T08:28:46.062Z,9.25
2023-12-28T08:31:49.201Z,9.13
2023-12-28T08:34:52.509Z,10.60
2023-12-28T08:37:55.607Z,10.60
2023-12-28T08:40:59.005Z,12.07
2023-12-28T08:44:01.986Z,9.48
2023-12-28T08:47:05.718Z,9.63
2023-12-28T08:50:09.010Z,10.83
2023-12-28T08:53:12.536Z,9.80
2023-12-28T08:56:18.436Z,10.70
2023-12-28T08:59:21.986Z,8.50
2023-12-28T09:02:24.792Z,10.03
2023-12-28T09:05:28.183Z,7.83
2023-12-28T09:08:31.318Z,9.20
2023-12-28T09:11:34.611Z,8.75
2023-12-28T09:14:37.549Z,9.95
2023-12-28T09:17:41.029Z,9.33
2023-12-28T09:20:44.400Z,7.10
2023-12-28T09:23:47.652Z,7.80
2023-12-28T09:26:50.711Z,8.30
2023-12-28T09:29:54.062Z,8.73
2023-12-28T09:32:57.239Z,7.97
2023-12-28T09:36:01.145Z,8.13
2023-12-28T09:39:05.421Z,8.85
2023-12-28T09:42:25.797Z,8.07
2023-12-28T09:45:28.845Z,7.93
2023-12-28T09:48:33.846Z,8.80
2023-12-28T09:51:36.944Z,8.67
2023-12-28T09:54:40.341Z,8.20
2023-12-28T09:57:43.761Z,8.38
2023-12-28T10:00:49.388Z,8.68
2023-12-28T10:03:52.672Z,7.93
2023-12-28T10:06:55.847Z,8.97
2023-12-28T10:09:59.224Z,8.30
2023-12-28T10:13:03.727Z,7.78
2023-12-28T10:16:10.498Z,7.68
2023-12-28T10:19:13.615Z,8.10
2023-12-28T10:22:17.132Z,7.90
2023-12-28T10:25:20.432Z,7.78
2023-12-28T10:28:23.689Z,8.02
2023-12-28T10:31:27.007Z,8.57
2023-12-28T10:34:30.853Z,7.97
2023-12-28T10:37:37.125Z,7.97
2023-12-28T10:40:43.132Z,8.63
2023-12-28T10:44:09.446Z,8.15
2023-12-28T10:47:20.150Z,7.90
2023-12-28T10:50:27.795Z,8.30
2023-12-28T10:53:50.618Z,7.93
2023-12-28T10:57:01.062Z,8.40
2023-12-28T11:00:13.154Z,8.35
2023-12-28T11:03:23.995Z,8.32
2023-12-28T11:06:31.133Z,8.17
2023-12-28T11:09:35.518Z,7.87
2023-12-28T11:12:39.996Z,8.52
2023-12-28T11:15:42.984Z,9.50
2023-12-28T11:18:47.979Z,8.18
2023-12-28T11:21:52.058Z,9.10
2023-12-28T11:24:55.700Z,8.23
2023-12-28T11:27:58.655Z,8.40
2023-12-28T11:31:02.824Z,8.60
2023-12-28T11:34:11.736Z,8.57
2023-12-28T11:37:22.400Z,8.03
2023-12-28T11:40:25.259Z,8.67
2023-12-28T11:43:29.118Z,9.05
2023-12-28T11:46:37.041Z,9.25
2023-12-28T11:49:43.736Z,9.43
2023-12-28T11:52:50.648Z,8.77
2023-12-28T11:55:54.003Z,9.03
2023-12-28T11:58:59.583Z,9.23
2023-12-28T12:02:02.817Z,11.82
2023-12-28T12:05:09.933Z,10.05
2023-12-28T12:08:15.594Z,8.27
2023-12-28T12:11:19.842Z,9.30
2023-12-28T12:14:22.829Z,9.40
2023-12-28T12:17:27.031Z,9.43
2023-12-28T12:20:31.221Z,9.90
2023-12-28T12:23:34.574Z,10.23
2023-12-28T12:26:37.531Z,10.53
2023-12-28T12:29:40.850Z,10.18
2023-12-28T12:32:45.090Z,9.43
2023-12-28T12:35:48.552Z,9.63
2023-12-28T12:38:51.964Z,10.10
2023-12-28T12:41:58.391Z,11.87
2023-12-28T12:45:01.334Z,10.52
2023-12-28T12:48:05.918Z,10.27
2023-12-28T12:51:09.662Z,9.30
2023-12-28T12:54:12.794Z,10.70
2023-12-28T12:57:16.580Z,11.27
2023-12-28T13:00:21.036Z,10.93
2023-12-28T13:03:29.191Z,11.38
2023-12-28T13:06:33.052Z,12.18
2023-12-28T13:09:36.867Z,12.13
2023-12-28T13:12:40.337Z,12.13
2023-12-28T13:15:43.388Z,11.77
2023-12-28T13:18:46.749Z,11.40
2023-12-28T13:21:49.983Z,12.60
2023-12-28T13:24:56.514Z,11.63
2023-12-28T13:28:17.944Z,10.60
2023-12-28T13:31:21.391Z,10.60
2023-12-28T13:34:24.405Z,10.52
2023-12-28T13:37:27.886Z,10.13
2023-12-28T13:40:32.591Z,11.27
2023-12-28T13:43:35.885Z,13.17
2023-12-28T13:46:38.603Z,11.68
2023-12-28T13:49:41.999Z,10.48
2023-12-28T13:52:44.853Z,10.88
2023-12-28T13:55:52.131Z,10.30
2023-12-28T13:58:55.264Z,11.60
2023-12-28T14:02:00.702Z,9.57
2023-12-28T14:05:04.703Z,9.98
2023-12-28T14:08:07.896Z,10.88
2023-12-28T14:11:11.332Z,11.67
2023-12-28T14:14:15.459Z,10.10
2023-12-28T14:17:21.191Z,11.02
2023-12-28T14:20:24.272Z,11.02
2023-12-28T14:23:27.857Z,10.63
2023-12-28T14:26:33.862Z,11.93
2023-12-28T14:29:37.923Z,13.43
2023-12-28T14:32:41.206Z,13.00
2023-12-28T14:35:47.525Z,15.25
2023-12-28T14:38:51.076Z,17.17
2023-12-28T14:41:54.367Z,16.43
2023-12-28T14:44:57.096Z,16.60
2023-12-28T14:48:00.877Z,18.50
2023-12-28T14:51:04.309Z,17.45
2023-12-28T14:54:07.619Z,20.50
2023-12-28T14:57:10.622Z,21.57
2023-12-28T15:00:14.413Z,18.90
2023-12-28T15:03:17.849Z,18.52
2023-12-28T15:06:21.020Z,16.55
2023-12-28T15:09:24.043Z,18.48
2023-12-28T15:12:27.716Z,19.97
2023-12-28T15:15:31.457Z,22.23
2023-12-28T15:18:35.636Z,23.20
2023-12-28T15:21:39.444Z,21.67
2023-12-28T15:24:43.075Z,24.37
2023-12-28T15:27:46.016Z,20.07
2023-12-28T15:30:49.666Z,22.13
2023-12-28T15:33:53.885Z,20.75
2023-12-28T15:36:58.270Z,18.73
2023-12-28T15:40:01.383Z,20.10
2023-12-28T15:43:04.694Z,19.83
2023-12-28T15:46:08.125Z,17.60
2023-12-28T15:49:11.614Z,17.83
2023-12-28T15:52:17.156Z,22.83
2023-12-28T15:55:20.965Z,20.85
2023-12-28T15:58:24.042Z,21.37
2023-12-28T16:01:27.448Z,21.60
2023-12-28T16:04:30.671Z,19.37
2023-12-28T16:07:35.042Z,18.73
2023-12-28T16:10:38.114Z,20.52
2023-12-28T16:13:44.606Z,23.33
2023-12-28T16:16:48.617Z,23.30
2023-12-28T16:19:51.861Z,23.15
2023-12-28T16:22:55.774Z,24.27
2023-12-28T16:25:58.696Z,23.70
2023-12-28T16:29:04.075Z,31.33
2023-12-28T16:32:08.131Z,32.05
2023-12-28T16:35:11.729Z,34.10
2023-12-28T16:38:14.774Z,35.10
2023-12-28T16:41:18.067Z,40.17
2023-12-28T16:44:21.262Z,43.87
2023-12-28T16:47:24.988Z,41.47
2023-12-28T16:50:27.954Z,42.65
2023-12-28T16:53:31.216Z,44.38
2023-12-28T16:56:34.076Z,41.08
2023-12-28T16:59:37.303Z,37.50
2023-12-28T17:02:46.179Z,56.55
2023-12-28T17:06:00.903Z,42.85
2023-12-28T17:09:15.175Z,42.28
2023-12-28T17:12:47.131Z,43.25
2023-12-28T17:16:00.680Z,43.67
2023-12-28T17:19:04.263Z,42.78
2023-12-28T17:22:12.228Z,42.75
2023-12-28T17:25:30.154Z,41.25
2023-12-28T17:29:08.633Z,41.47
2023-12-28T17:32:16.598Z,37.13
2023-12-28T17:35:21.937Z,39.85
2023-12-28T17:38:27.721Z,45.03
2023-12-28T17:41:36.179Z,36.05
2023-12-28T17:44:43.990Z,32.17
2023-12-28T17:48:10.748Z,29.30
2023-12-28T17:51:16.012Z,28.52
2023-12-28T17:54:19.541Z,32.97
2023-12-28T17:57:22.924Z,30.08
2023-12-28T18:00:25.996Z,33.33
2023-12-28T18:03:29.501Z,31.77
2023-12-28T18:06:33.118Z,29.77
2023-12-28T18:09:41.802Z,28.20
2023-12-28T18:12:45.436Z,27.85
2023-12-28T18:15:48.561Z,28.40
2023-12-28T18:18:52.396Z,25.58
2023-12-28T18:21:55.275Z,27.13
2023-12-28T18:24:59.741Z,26.90
2023-12-28T18:28:03.433Z,28.08
2023-12-28T18:31:07.619Z,30.10
2023-12-28T18:34:11.038Z,30.10
2023-12-28T18:37:17.801Z,29.87
2023-12-28T18:40:21.931Z,30.98
2023-12-28T18:43:25.360Z,29.15
2023-12-28T18:46:29.044Z,27.63
2023-12-28T18:49:34.910Z,27.87
2023-12-28T18:52:38.105Z,25.67
2023-12-28T18:55:42.688Z,30.20
2023-12-28T18:58:46.046Z,27.70
2023-12-28T19:01:51.054Z,26.73
2023-12-28T19:04:55.446Z,32.13
2023-12-28T19:08:00.813Z,31.25
2023-12-28T19:11:04.842Z,33.95
2023-12-28T19:14:08.959Z,33.40
2023-12-28T19:17:13.457Z,31.35
2023-12-28T19:20:17.821Z,35.22
2023-12-28T19:23:40.385Z,37.30
2023-12-28T19:26:45.195Z,34.27
2023-12-28T19:29:49.178Z,33.95
2023-12-28T19:32:54.137Z,32.63
2023-12-28T19:35:58.421Z,34.47
2023-12-28T19:39:03.823Z,33.00
2023-12-28T19:42:08.016Z,35.25
2023-12-28T19:45:12.767Z,34.08
2023-12-28T19:48:16.961Z,34.58
2023-12-28T19:51:21.658Z,32.67
2023-12-28T19:54:25.535Z,30.73
2023-12-28T19:57:29.732Z,31.45
2023-12-28T20:00:34.406Z,31.60
2023-12-28T20:03:40.173Z,32.88
2023-12-28T20:06:48.021Z,28.58
2023-12-28T20:09:52.730Z,29.77
2023-12-28T20:12:56.812Z,29.42
2023-12-28T20:16:00.755Z,30.60
2023-12-28T20:19:04.567Z,28.98
2023-12-28T20:22:08.527Z,30.48
2023-12-28T20:25:13.063Z,28.67
2023-12-28T20:28:18.038Z,31.08
2023-12-28T20:31:25.409Z,30.88
2023-12-28T20:34:29.838Z,30.08
2023-12-28T20:37:34.079Z,31.90
2023-12-28T20:40:38.728Z,29.67
2023-12-28T20:43:43.131Z,28.73
2023-12-28T20:46:47.772Z,27.48
2023-12-28T20:49:53.383Z,28.33
2023-12-28T20:52:58.005Z,27.30
2023-12-28T20:56:02.220Z,28.55
2023-12-28T20:59:06.904Z,28.00
2023-12-28T21:02:10.312Z,29.70
2023-12-28T21:05:13.936Z,29.90
2023-12-28T21:08:16.843Z,29.90
2023-12-28T21:11:19.952Z,30.52
2023-12-28T21:14:23.131Z,30.17
2023-12-28T21:17:26.497Z,30.73
2023-12-28T21:20:29.415Z,29.15
2023-12-28T21:23:32.904Z,29.25
2023-12-28T21:26:35.737Z,28.30
2023-12-28T21:29:40.521Z,29.17
2023-12-28T21:32:43.615Z,28.85
2023-12-28T21:35:46.879Z,27.55
2023-12-28T21:38:49.801Z,27.67
2023-12-28T21:41:53.069Z,29.40
2023-12-28T21:44:57.174Z,28.38
2023-12-28T21:48:00.679Z,28.83
2023-12-28T21:51:03.855Z,29.50
2023-12-28T21:54:07.426Z,29.40
2023-12-28T21:57:10.726Z,30.42
2023-12-28T22:00:14.213Z,30.88
2023-12-28T22:03:17.508Z,29.40
2023-12-28T22:06:20.263Z,28.23
2023-12-28T22:09:23.771Z,29.85
2023-12-28T22:12:29.498Z,30.77
2023-12-28T22:15:35.924Z,30.58
2023-12-28T22:18:39.054Z,29.07
2023-12-28T22:21:42.656Z,27.92
2023-12-28T22:24:45.528Z,28.83
2023-12-28T22:27:48.679Z,27.70
2023-12-28T22:30:51.497Z,28.83
2023-12-28T22:33:55.065Z,27.83
2023-12-28T22:36:57.937Z,28.35
2023-12-28T22:40:03.360Z,26.35
2023-12-28T22:43:06.396Z,26.92
2023-12-28T22:46:15.298Z,27.67
2023-12-28T22:49:18.292Z,27.80
2023-12-28T22:52:21.705Z,28.08
2023-12-28T22:55:24.492Z,25.70
2023-12-28T22:58:27.683Z,28.12
2023-12-28T23:01:30.528Z,27.10
2023-12-28T23:04:40.193Z,28.17
2023-12-28T23:07:49.500Z,26.20
2023-12-28T23:10:52.721Z,26.05
2023-12-28T23:13:56.405Z,28.20
2023-12-28T23:16:59.555Z,26.05
2023-12-28T23:20:02.740Z,27.03
2023-12-28T23:23:06.364Z,26.75
2023-12-28T23:26:09.285Z,30.17
2023-12-28T23:29:12.590Z,27.67
2023-12-28T23:32:15.398Z,27.90
2023-12-28T23:35:18.742Z,26.12
2023-12-28T23:38:21.674Z,25.58
2023-12-28T23:41:25.449Z,25.93
2023-12-28T23:44:28.212Z,24.15
2023-12-28T23:47:31.350Z,23.27
2023-12-28T23:50:34.312Z,23.92
2023-12-28T23:53:39.368Z,25.23
2023-12-28T23:56:42.275Z,25.17
2023-12-28T23:59:45.453Z,24.83
